createdAt,value
2019-05-02T00:01:51.205Z,7.00
2019-05-02T00:04:21.321Z,6.85
2019-05-02T00:07:05.076Z,7.00
2019-05-02T00:09:34.473Z,6.53
2019-05-02T00:12:04.527Z,7.17
2019-05-02T00:14:34.249Z,6.53
2019-05-02T00:17:03.341Z,6.10
2019-05-02T00:19:32.256Z,7.72
2019-05-02T00:22:01.228Z,6.63
2019-05-02T00:24:33.997Z,7.80
2019-05-02T00:27:03.136Z,7.03
2019-05-02T00:29:32.260Z,7.50
2019-05-02T00:32:01.324Z,8.47
2019-05-02T00:34:31.344Z,8.90
2019-05-02T00:37:00.528Z,7.40
2019-05-02T00:39:29.546Z,7.10
2019-05-02T00:42:11.477Z,8.40
2019-05-02T00:44:29.268Z,8.13
2019-05-02T00:47:06.105Z,6.73
2019-05-02T00:49:35.530Z,7.80
2019-05-02T00:52:04.688Z,8.08
2019-05-02T00:54:33.716Z,8.33
2019-05-02T00:57:02.677Z,8.13
2019-05-02T00:59:31.656Z,8.13
2019-05-02T01:02:16.756Z,8.77
2019-05-02T01:04:46.962Z,9.20
2019-05-02T01:07:20.377Z,9.03
2019-05-02T01:09:48.059Z,8.68
2019-05-02T01:12:26.348Z,10.18
2019-05-02T01:14:47.828Z,9.18
2019-05-02T01:17:16.740Z,8.40
2019-05-02T01:19:47.138Z,8.50
2019-05-02T01:22:17.300Z,9.43
2019-05-02T01:24:46.348Z,7.72
2019-05-02T01:27:36.005Z,8.83
2019-05-02T01:30:27.521Z,9.38
2019-05-02T01:33:06.536Z,9.17
2019-05-02T01:35:40.549Z,8.45
2019-05-02T01:38:20.027Z,8.13
2019-05-02T01:40:53.315Z,8.73
2019-05-02T01:43:29.768Z,8.93
2019-05-02T01:45:58.851Z,9.28
2019-05-02T01:48:28.232Z,8.48
2019-05-02T01:50:59.487Z,8.33
2019-05-02T01:53:34.046Z,8.03
2019-05-02T01:55:59.418Z,9.53
2019-05-02T01:58:28.688Z,8.68
2019-05-02T02:00:57.678Z,8.85
2019-05-02T02:03:26.980Z,8.23
2019-05-02T02:05:55.950Z,7.90
2019-05-02T02:08:27.441Z,8.35
2019-05-02T02:10:58.264Z,8.05
2019-05-02T02:13:31.187Z,8.25
2019-05-02T02:16:00.258Z,7.67
2019-05-02T02:18:30.559Z,7.80
2019-05-02T02:21:10.244Z,8.00
2019-05-02T02:23:49.732Z,8.40
2019-05-02T02:26:19.926Z,8.27
2019-05-02T02:28:48.920Z,8.40
2019-05-02T02:31:20.061Z,7.70
2019-05-02T02:33:49.868Z,8.33
2019-05-02T02:36:30.153Z,8.43
2019-05-02T02:38:49.922Z,7.55
2019-05-02T02:41:18.982Z,8.10
2019-05-02T02:44:04.954Z,7.40
2019-05-02T02:46:37.966Z,7.85
2019-05-02T02:49:05.811Z,7.97
2019-05-02T02:51:34.820Z,7.47
2019-05-02T02:54:05.784Z,7.92
2019-05-02T02:56:40.530Z,7.85
2019-05-02T02:59:06.326Z,7.67
2019-05-02T03:01:35.389Z,6.95
2019-05-02T03:04:09.721Z,8.28
2019-05-02T03:06:38.345Z,8.28
2019-05-02T03:09:06.572Z,8.13
2019-05-02T03:11:44.263Z,8.15
2019-05-02T03:14:21.256Z,9.83
2019-05-02T03:16:50.337Z,8.30
2019-05-02T03:19:21.284Z,9.10
2019-05-02T03:22:00.830Z,9.30
2019-05-02T03:24:26.788Z,8.18
2019-05-02T03:26:58.324Z,8.78
2019-05-02T03:29:39.657Z,8.75
2019-05-02T03:32:14.635Z,9.60
2019-05-02T03:34:45.491Z,9.33
2019-05-02T03:37:03.276Z,9.18
2019-05-02T03:39:30.137Z,9.18
2019-05-02T03:42:02.764Z,8.98
2019-05-02T03:44:30.588Z,10.00
2019-05-02T03:47:02.060Z,8.83
2019-05-02T03:49:30.921Z,8.55
2019-05-02T03:52:03.120Z,9.47
2019-05-02T03:54:31.061Z,8.10
2019-05-02T03:56:59.959Z,9.50
2019-05-02T03:59:38.760Z,9.40
2019-05-02T04:02:00.218Z,9.25
2019-05-02T04:04:29.988Z,9.43
2019-05-02T04:07:01.111Z,9.53
2019-05-02T04:09:38.882Z,10.15
2019-05-02T04:12:11.717Z,9.97
2019-05-02T04:14:38.596Z,10.45
2019-05-02T04:17:09.098Z,9.53
2019-05-02T04:19:38.192Z,8.80
2019-05-02T04:22:11.759Z,9.50
2019-05-02T04:24:38.216Z,10.23
2019-05-02T04:27:07.136Z,9.80
2019-05-02T04:29:36.633Z,9.70
2019-05-02T04:32:11.441Z,9.25
2019-05-02T04:34:36.611Z,9.57
2019-05-02T04:37:06.597Z,9.38
2019-05-02T04:39:39.080Z,9.68
2019-05-02T04:42:16.003Z,9.83
2019-05-02T04:44:52.774Z,10.43
2019-05-02T04:47:16.919Z,10.00
2019-05-02T04:49:39.752Z,9.20
2019-05-02T04:52:12.205Z,8.67
2019-05-02T04:54:40.192Z,9.17
2019-05-02T04:57:10.040Z,10.03
2019-05-02T05:00:05.636Z,9.93
2019-05-02T05:02:30.843Z,10.20
2019-05-02T05:04:58.810Z,10.17
2019-05-02T05:07:31.099Z,10.40
2019-05-02T05:10:02.984Z,10.30
2019-05-02T05:12:32.590Z,8.73
2019-05-02T05:15:00.474Z,8.80
2019-05-02T05:17:32.701Z,9.63
2019-05-02T05:20:00.309Z,9.03
2019-05-02T05:22:38.599Z,9.20
2019-05-02T05:25:12.251Z,9.43
2019-05-02T05:27:39.174Z,9.50
2019-05-02T05:30:15.215Z,9.60
2019-05-02T05:32:39.266Z,10.67
2019-05-02T05:35:12.755Z,19.00
2019-05-02T05:37:43.362Z,9.20
2019-05-02T05:40:12.004Z,9.50
2019-05-02T05:42:41.078Z,11.07
2019-05-02T05:45:13.779Z,10.00
2019-05-02T05:47:40.889Z,9.40
2019-05-02T05:50:09.964Z,10.00
2019-05-02T05:52:42.368Z,10.00
2019-05-02T05:55:12.782Z,9.33
2019-05-02T05:57:40.303Z,9.67
2019-05-02T06:00:18.657Z,9.93
2019-05-02T06:02:53.013Z,11.30
2019-05-02T06:05:13.792Z,9.67
2019-05-02T06:07:44.951Z,10.00
2019-05-02T06:10:14.540Z,9.57
2019-05-02T06:12:46.645Z,10.90
2019-05-02T06:15:16.994Z,9.50
2019-05-02T06:17:48.619Z,10.20
2019-05-02T06:20:19.549Z,11.67
2019-05-02T06:22:54.977Z,10.17
2019-05-02T06:25:33.788Z,9.20
2019-05-02T06:28:00.252Z,9.57
2019-05-02T06:30:31.200Z,9.10
2019-05-02T06:33:04.138Z,9.50
2019-05-02T06:35:35.777Z,10.33
2019-05-02T06:38:06.749Z,8.80
2019-05-02T06:40:39.320Z,9.43
2019-05-02T06:43:11.412Z,10.33
2019-05-02T06:45:43.399Z,10.60
2019-05-02T06:48:17.754Z,10.00
2019-05-02T06:50:47.306Z,9.27
2019-05-02T06:53:18.668Z,9.37
2019-05-02T06:55:50.434Z,10.43
2019-05-02T06:58:21.148Z,10.20
2019-05-02T07:00:58.442Z,10.67
2019-05-02T07:03:27.665Z,11.70
2019-05-02T07:06:02.647Z,10.50
2019-05-02T07:08:34.712Z,10.53
2019-05-02T07:11:06.651Z,11.07
2019-05-02T07:13:42.165Z,10.83
2019-05-02T07:16:37.511Z,10.23
2019-05-02T07:19:21.629Z,11.87
2019-05-02T07:21:58.431Z,10.07
2019-05-02T07:24:56.456Z,10.87
2019-05-02T07:27:33.107Z,10.10
2019-05-02T07:30:01.991Z,10.50
2019-05-02T07:32:33.203Z,9.20
2019-05-02T07:35:04.252Z,9.40
2019-05-02T07:37:35.831Z,10.67
2019-05-02T07:40:07.645Z,10.70
2019-05-02T07:42:41.773Z,12.90
2019-05-02T07:45:12.553Z,9.80
2019-05-02T07:47:44.407Z,9.43
2019-05-02T07:50:15.960Z,11.10
2019-05-02T07:52:49.267Z,10.30
2019-05-02T07:55:20.534Z,10.13
2019-05-02T07:57:51.705Z,10.20
2019-05-02T08:00:23.219Z,9.90
2019-05-02T08:02:57.981Z,10.93
2019-05-02T08:05:27.443Z,9.10
2019-05-02T08:07:59.002Z,10.43
2019-05-02T08:10:33.905Z,10.77
2019-05-02T08:13:04.834Z,10.77
2019-05-02T08:15:36.243Z,9.90
2019-05-02T08:18:07.432Z,10.60
2019-05-02T08:20:38.746Z,9.20
2019-05-02T08:23:13.437Z,7.90
2019-05-02T08:25:45.461Z,7.70
2019-05-02T08:28:23.903Z,9.40
2019-05-02T08:30:55.328Z,9.80
2019-05-02T08:33:28.773Z,8.20
2019-05-02T08:35:54.827Z,9.00
2019-05-02T08:38:23.785Z,9.07
2019-05-02T08:40:52.672Z,8.50
2019-05-02T08:43:21.610Z,8.93
2019-05-02T08:45:50.567Z,9.43
2019-05-02T08:48:22.407Z,8.70
2019-05-02T08:50:50.084Z,8.00
2019-05-02T08:53:20.309Z,9.20
2019-05-02T08:55:49.880Z,8.50
2019-05-02T08:58:18.791Z,8.63
2019-05-02T09:00:47.777Z,8.57
2019-05-02T09:03:16.730Z,8.13
2019-05-02T09:05:46.240Z,7.80
2019-05-02T09:08:16.752Z,7.87
2019-05-02T09:10:46.011Z,8.40
2019-05-02T09:13:17.718Z,8.43
2019-05-02T09:15:51.039Z,7.30
2019-05-02T09:18:15.992Z,6.67
2019-05-02T09:20:47.053Z,6.60
2019-05-02T09:23:15.440Z,7.37
2019-05-02T09:25:45.345Z,6.57
2019-05-02T09:28:17.070Z,6.40
2019-05-02T09:30:46.890Z,7.07
2019-05-02T09:33:18.317Z,7.10
2019-05-02T09:35:49.166Z,9.70
2019-05-02T09:38:22.106Z,12.50
2019-05-02T09:40:56.234Z,13.10
2019-05-02T09:43:29.251Z,10.97
2019-05-02T09:45:58.146Z,12.10
2019-05-02T09:48:28.822Z,11.40
2019-05-02T09:51:04.523Z,10.60
2019-05-02T09:53:32.983Z,11.90
2019-05-02T09:56:04.757Z,11.10
2019-05-02T09:58:35.747Z,11.30
2019-05-02T10:01:22.494Z,11.33
2019-05-02T10:03:53.704Z,11.73
2019-05-02T10:06:24.527Z,10.97
2019-05-02T10:08:55.673Z,10.63
2019-05-02T10:11:26.549Z,10.93
2019-05-02T10:13:58.715Z,12.10
2019-05-02T10:16:31.765Z,10.70
2019-05-02T10:19:09.400Z,11.57
2019-05-02T10:21:35.046Z,11.47
2019-05-02T10:24:05.891Z,11.53
2019-05-02T10:26:38.515Z,11.23
2019-05-02T10:29:12.843Z,9.73
2019-05-02T10:31:45.160Z,9.40
2019-05-02T10:34:19.066Z,9.50
2019-05-02T10:36:58.643Z,8.90
2019-05-02T10:39:34.098Z,11.70
2019-05-02T10:42:07.198Z,11.60
2019-05-02T10:44:42.668Z,11.00
2019-05-02T10:47:15.915Z,12.00
2019-05-02T10:53:47.139Z,9.43
2019-05-02T10:57:16.808Z,9.20
2019-05-02T11:00:38.387Z,9.10
2019-05-02T11:02:41.886Z,10.50
2019-05-02T11:03:38.120Z,9.93
2019-05-02T11:09:57.241Z,10.27
2019-05-02T11:17:13.987Z,8.30
2019-05-02T11:22:46.885Z,8.10
2019-05-02T11:25:42.143Z,7.87
2019-05-02T11:35:15.648Z,6.37
2019-05-02T11:37:56.011Z,9.13
2019-05-02T11:41:02.723Z,8.40
2019-05-02T11:47:29.594Z,7.90
2019-05-02T11:50:16.807Z,7.13
2019-05-02T11:52:52.986Z,7.37
2019-05-02T11:55:28.857Z,6.20
2019-05-02T11:58:07.489Z,6.90
2019-05-02T12:01:05.108Z,7.37
2019-05-02T12:03:42.195Z,6.80
2019-05-02T12:06:19.146Z,6.33
2019-05-02T12:09:22.347Z,7.20
2019-05-02T12:11:56.634Z,7.70
2019-05-02T12:14:39.377Z,7.60
2019-05-02T12:17:21.775Z,7.53
2019-05-02T12:23:32.037Z,6.70
2019-05-02T12:26:02.763Z,7.60
2019-05-02T12:28:36.846Z,7.40
2019-05-02T12:31:16.785Z,6.87
2019-05-02T12:33:47.539Z,6.53
2019-05-02T12:36:16.618Z,6.43
2019-05-02T12:38:45.782Z,6.90
2019-05-02T12:41:22.379Z,7.13
2019-05-02T12:43:45.795Z,6.87
2019-05-02T12:46:14.964Z,7.23
2019-05-02T12:48:45.080Z,7.00
2019-05-02T12:51:14.057Z,8.30
2019-05-02T12:53:43.040Z,7.60
2019-05-02T12:56:12.293Z,7.10
2019-05-02T12:58:42.101Z,6.77
2019-05-02T13:01:12.242Z,6.93
2019-05-02T13:03:49.076Z,7.47
2019-05-02T13:06:18.000Z,7.40
2019-05-02T13:08:52.085Z,8.17
2019-05-02T13:11:42.238Z,7.67
2019-05-02T13:14:19.072Z,7.90
2019-05-02T13:16:43.047Z,7.80
2019-05-02T13:19:12.138Z,7.17
2019-05-02T13:21:57.985Z,7.90
2019-05-02T13:24:29.109Z,7.10
2019-05-02T13:26:59.468Z,7.73
2019-05-02T13:29:27.134Z,7.60
2019-05-02T13:32:21.756Z,8.10
2019-05-02T13:35:13.828Z,7.50
2019-05-02T13:37:44.242Z,7.30
2019-05-02T13:40:22.813Z,8.03
2019-05-02T13:42:52.655Z,6.73
2019-05-02T13:45:34.601Z,6.63
2019-05-02T13:48:03.570Z,6.60
2019-05-02T13:50:32.530Z,6.20
2019-05-02T13:53:02.641Z,6.50
2019-05-02T13:55:36.221Z,6.50
2019-05-02T13:58:05.184Z,6.40
2019-05-02T14:00:43.237Z,7.13
2019-05-02T14:03:12.480Z,7.00
2019-05-02T14:05:49.331Z,7.70
2019-05-02T14:08:31.988Z,7.60
2019-05-02T14:11:18.029Z,8.10
2019-05-02T14:13:46.858Z,7.03
2019-05-02T14:16:15.663Z,7.50
2019-05-02T14:18:44.486Z,7.80
2019-05-02T14:21:13.380Z,7.60
2019-05-02T14:23:42.263Z,6.60
2019-05-02T14:26:11.703Z,8.23
2019-05-02T14:28:40.548Z,7.37
2019-05-02T14:31:09.389Z,8.20
2019-05-02T14:33:40.040Z,8.30
2019-05-02T14:36:09.009Z,7.53
2019-05-02T14:38:37.963Z,7.30
2019-05-02T14:41:22.852Z,8.10
2019-05-02T14:43:54.260Z,8.00
2019-05-02T14:46:28.881Z,8.17
2019-05-02T14:48:56.325Z,7.83
2019-05-02T14:51:27.767Z,9.07
2019-05-02T14:54:01.915Z,8.23
2019-05-02T14:56:37.612Z,9.00
2019-05-02T14:59:09.131Z,9.30
2019-05-02T15:01:36.891Z,7.80
2019-05-02T15:04:08.217Z,8.90
2019-05-02T15:06:38.290Z,9.53
2019-05-02T15:09:08.056Z,9.37
2019-05-02T15:11:42.627Z,9.30
2019-05-02T15:14:18.375Z,9.27
2019-05-02T15:16:49.740Z,9.30
2019-05-02T15:19:17.782Z,7.33
2019-05-02T15:21:54.369Z,7.27
2019-05-02T15:24:23.060Z,7.37
2019-05-02T15:26:54.695Z,7.20
2019-05-02T15:29:27.269Z,8.50
2019-05-02T15:32:18.941Z,7.67
2019-05-02T15:35:02.439Z,7.03
2019-05-02T15:37:35.630Z,7.67
2019-05-02T15:42:36.254Z,6.40
2019-05-02T15:45:06.478Z,6.70
2019-05-02T15:47:36.977Z,6.20
2019-05-02T15:50:09.340Z,6.83
2019-05-02T15:52:42.049Z,7.17
2019-05-02T15:55:12.990Z,5.60
2019-05-02T15:57:46.457Z,7.90
2019-05-02T16:00:23.137Z,6.23
2019-05-02T16:02:51.700Z,6.10
2019-05-02T16:05:23.479Z,6.70
2019-05-02T16:07:53.397Z,6.57
2019-05-02T16:10:31.614Z,5.57
2019-05-02T16:13:00.193Z,6.40
2019-05-02T16:15:29.183Z,5.60
2019-05-02T16:18:03.904Z,5.50
2019-05-02T16:20:48.693Z,6.13
2019-05-02T16:23:18.973Z,5.90
2019-05-02T16:25:47.009Z,6.00
2019-05-02T16:28:15.984Z,6.43
2019-05-02T16:30:47.576Z,5.80
2019-05-02T16:33:19.667Z,6.53
2019-05-02T16:35:52.806Z,6.40
2019-05-02T16:38:18.860Z,6.47
2019-05-02T16:40:48.777Z,7.40
2019-05-02T16:43:17.620Z,6.60
2019-05-02T16:45:46.832Z,7.03
2019-05-02T16:48:15.760Z,5.80
2019-05-02T16:50:45.063Z,6.87
2019-05-02T16:53:17.330Z,7.60
2019-05-02T16:55:44.796Z,7.10
2019-05-02T16:58:13.809Z,6.63
2019-05-02T17:00:45.491Z,6.10
2019-05-02T17:03:17.451Z,6.83
2019-05-02T17:05:45.820Z,7.00
2019-05-02T17:08:22.574Z,6.33
2019-05-02T17:10:57.049Z,7.70
2019-05-02T17:13:27.376Z,7.50
2019-05-02T17:15:57.148Z,7.93
2019-05-02T17:18:26.140Z,6.40
2019-05-02T17:20:56.779Z,7.30
2019-05-02T17:23:25.681Z,7.50
2019-05-02T17:25:54.708Z,7.47
2019-05-02T17:28:24.606Z,7.93
2019-05-02T17:30:53.540Z,8.07
2019-05-02T17:33:22.530Z,8.17
2019-05-02T17:35:54.379Z,8.90
2019-05-02T17:38:29.051Z,8.30
2019-05-02T17:40:59.378Z,8.77
2019-05-02T17:43:25.464Z,8.30
2019-05-02T17:45:56.749Z,8.50
2019-05-02T17:48:25.708Z,8.63
2019-05-02T17:51:19.613Z,8.53
2019-05-02T17:53:50.082Z,8.40
2019-05-02T17:56:20.462Z,9.90
2019-05-02T17:58:56.560Z,7.70
2019-05-02T18:01:33.409Z,9.53
2019-05-02T18:04:01.989Z,9.07
2019-05-02T18:06:34.986Z,8.63
2019-05-02T18:09:01.804Z,8.50
2019-05-02T18:11:36.446Z,8.07
2019-05-02T18:14:04.221Z,8.53
2019-05-02T18:16:33.264Z,8.97
2019-05-02T18:19:03.212Z,9.00
2019-05-02T18:21:32.417Z,7.93
2019-05-02T18:24:06.013Z,7.70
2019-05-02T18:26:35.656Z,8.60
2019-05-02T18:29:06.877Z,8.87
2019-05-02T18:31:40.084Z,7.43
2019-05-02T18:34:25.248Z,9.30
2019-05-02T18:37:03.071Z,8.53
2019-05-02T18:40:11.991Z,8.97
2019-05-02T18:48:18.805Z,8.83
2019-05-02T18:50:06.125Z,9.60
2019-05-02T18:52:43.100Z,8.93
2019-05-02T18:55:34.699Z,10.43
2019-05-02T18:58:53.345Z,9.37
2019-05-02T19:01:52.668Z,8.97
2019-05-02T19:05:19.210Z,9.43
2019-05-02T19:08:04.299Z,9.70
2019-05-02T19:11:04.753Z,8.77
2019-05-02T19:13:47.364Z,10.00
2019-05-02T19:16:45.164Z,9.67
2019-05-02T19:19:22.493Z,9.00
2019-05-02T19:21:54.100Z,10.27
2019-05-02T19:24:34.989Z,9.63
2019-05-02T19:27:02.954Z,9.47
2019-05-02T19:29:33.238Z,11.23
2019-05-02T19:32:12.244Z,10.40
2019-05-02T19:34:41.897Z,11.13
2019-05-02T19:37:15.804Z,11.17
2019-05-02T19:39:48.746Z,10.77
2019-05-02T19:42:24.590Z,13.08
2019-05-02T19:44:52.639Z,12.10
2019-05-02T19:47:22.094Z,12.10
2019-05-02T19:49:55.366Z,12.17
2019-05-02T19:52:28.576Z,13.20
2019-05-02T19:54:58.836Z,14.17
2019-05-02T19:57:27.309Z,13.80
2019-05-02T19:59:57.198Z,14.63
2019-05-02T20:02:27.017Z,14.57
2019-05-02T20:04:56.014Z,15.97
2019-05-02T20:07:25.729Z,15.60
2019-05-02T20:09:54.900Z,14.40
2019-05-02T20:12:26.973Z,15.60
2019-05-02T20:14:55.820Z,16.00
2019-05-02T20:17:24.777Z,15.00
2019-05-02T20:19:57.694Z,17.30
2019-05-02T20:22:26.775Z,16.07
2019-05-02T20:25:00.190Z,18.60
2019-05-02T20:27:29.758Z,18.70
2019-05-02T20:30:03.239Z,17.27
2019-05-02T20:32:32.344Z,17.67
2019-05-02T20:35:07.990Z,17.50
2019-05-02T20:37:37.061Z,17.87
2019-05-02T20:40:06.289Z,18.70
2019-05-02T20:42:35.586Z,19.23
2019-05-02T20:45:06.005Z,19.00
2019-05-02T20:47:35.040Z,18.70
2019-05-02T20:50:05.925Z,19.70
2019-05-02T20:52:37.020Z,19.40
2019-05-02T20:55:07.638Z,18.73
2019-05-02T20:57:36.612Z,20.10
2019-05-02T21:00:06.072Z,20.33
2019-05-02T21:02:38.069Z,20.13
2019-05-02T21:05:08.810Z,20.00
2019-05-02T21:07:56.335Z,20.85
2019-05-02T21:10:34.770Z,20.07
2019-05-02T21:13:04.177Z,20.27
2019-05-02T21:15:33.225Z,20.53
2019-05-02T21:18:02.407Z,21.63
2019-05-02T21:20:32.519Z,22.58
2019-05-02T21:23:01.993Z,23.07
2019-05-02T21:25:32.644Z,20.60
2019-05-02T21:28:02.856Z,21.35
2019-05-02T21:30:34.616Z,22.40
2019-05-02T21:33:04.205Z,22.82
2019-05-02T21:35:34.197Z,21.00
2019-05-02T21:38:04.285Z,25.63
2019-05-02T21:40:33.234Z,23.87
2019-05-02T21:43:02.526Z,24.00
2019-05-02T21:45:32.568Z,22.40
2019-05-02T21:48:02.299Z,23.90
2019-05-02T21:50:48.762Z,22.67
2019-05-02T21:53:54.990Z,23.02
2019-05-02T21:56:23.548Z,22.30
2019-05-02T21:59:08.468Z,21.23
2019-05-02T22:01:48.297Z,23.93
2019-05-02T22:04:17.280Z,22.50
2019-05-02T22:06:49.375Z,21.80
2019-05-02T22:09:19.313Z,22.93
2019-05-02T22:11:48.209Z,22.73
2019-05-02T22:14:17.571Z,24.02
2019-05-02T22:16:46.628Z,21.30
2019-05-02T22:19:15.494Z,22.20
2019-05-02T22:21:44.609Z,22.27
2019-05-02T22:24:14.402Z,23.87
2019-05-02T22:26:43.686Z,24.37
2019-05-02T22:29:12.858Z,22.53
2019-05-02T22:31:44.002Z,21.48
2019-05-02T22:34:13.080Z,24.47
2019-05-02T22:36:42.246Z,22.43
2019-05-02T22:39:28.823Z,22.00
2019-05-02T22:41:57.708Z,22.87
2019-05-02T22:44:26.784Z,24.20
2019-05-02T22:46:55.692Z,22.00
2019-05-02T22:49:24.651Z,22.95
2019-05-02T22:51:53.637Z,24.67
2019-05-02T22:54:27.692Z,23.10
2019-05-02T22:56:53.253Z,22.60
2019-05-02T22:59:23.960Z,22.33
2019-05-02T23:01:52.971Z,24.97
2019-05-02T23:04:23.597Z,21.97
2019-05-02T23:06:53.031Z,23.30
2019-05-02T23:09:22.183Z,21.35
2019-05-02T23:11:51.840Z,21.27
2019-05-02T23:14:22.157Z,20.47
2019-05-02T23:16:52.801Z,22.87
2019-05-02T23:19:23.022Z,20.72
2019-05-02T23:21:52.697Z,22.13
2019-05-02T23:24:39.057Z,21.12
2019-05-02T23:27:22.377Z,19.90
2019-05-02T23:29:51.993Z,22.67
2019-05-02T23:32:23.623Z,20.97
2019-05-02T23:34:52.382Z,21.27
2019-05-02T23:37:21.364Z,20.27
2019-05-02T23:39:52.507Z,21.37
2019-05-02T23:42:21.870Z,20.32
2019-05-02T23:44:51.937Z,20.35
2019-05-02T23:47:22.459Z,19.65
2019-05-02T23:49:52.041Z,21.10
2019-05-02T23:52:22.505Z,20.12
2019-05-02T23:54:52.429Z,20.63
2019-05-02T23:57:22.976Z,21.07
2019-05-02T23:59:52.100Z,18.77
